createdAt,value
2022-11-03T00:02:36.877Z,8.20
2022-11-03T00:05:42.066Z,8.30
2022-11-03T00:08:29.727Z,8.40
2022-11-03T00:11:18.635Z,8.40
2022-11-03T00:14:07.088Z,8.40
2022-11-03T00:16:54.748Z,8.40
2022-11-03T00:19:42.106Z,8.40
2022-11-03T00:22:29.851Z,8.40
2022-11-03T00:25:17.214Z,8.40
2022-11-03T00:28:04.689Z,8.20
2022-11-03T00:30:52.143Z,8.20
2022-11-03T00:33:41.138Z,8.20
2022-11-03T00:36:31.241Z,8.20
2022-11-03T00:39:18.640Z,8.20
2022-11-03T00:42:05.975Z,8.30
2022-11-03T00:44:53.521Z,8.10
2022-11-03T00:47:42.670Z,7.90
2022-11-03T00:50:29.977Z,7.80
2022-11-03T00:53:17.410Z,7.80
2022-11-03T00:56:06.001Z,7.80
2022-11-03T00:58:54.406Z,7.80
2022-11-03T01:01:48.096Z,7.90
2022-11-03T01:04:51.305Z,7.90
2022-11-03T01:07:39.813Z,7.80
2022-11-03T01:10:26.725Z,7.70
2022-11-03T01:13:14.515Z,7.70
2022-11-03T01:16:01.929Z,7.60
2022-11-03T01:18:50.322Z,7.60
2022-11-03T01:21:37.721Z,7.50
2022-11-03T01:24:24.926Z,7.60
2022-11-03T01:27:15.728Z,7.50
2022-11-03T01:30:03.122Z,7.40
2022-11-03T01:32:50.301Z,7.30
2022-11-03T01:35:37.549Z,7.40
2022-11-03T01:38:24.798Z,7.60
2022-11-03T01:41:18.224Z,7.50
2022-11-03T01:44:11.657Z,7.40
2022-11-03T01:47:23.233Z,7.40
2022-11-03T01:50:16.500Z,7.40
2022-11-03T01:53:04.363Z,7.50
2022-11-03T01:55:52.745Z,7.50
2022-11-03T01:58:44.090Z,7.60
2022-11-03T02:01:33.794Z,7.60
2022-11-03T02:04:27.139Z,7.60
2022-11-03T02:07:20.608Z,7.50
2022-11-03T02:10:09.122Z,7.40
2022-11-03T02:12:56.343Z,7.30
2022-11-03T02:15:44.540Z,7.10
2022-11-03T02:18:34.788Z,7.10
2022-11-03T02:21:31.450Z,7.10
2022-11-03T02:24:28.308Z,7.10
2022-11-03T02:27:14.934Z,7.00
2022-11-03T02:30:03.394Z,7.00
2022-11-03T02:33:00.313Z,6.90
2022-11-03T02:36:02.871Z,6.90
2022-11-03T02:38:59.053Z,6.90
2022-11-03T02:41:47.745Z,6.80
2022-11-03T02:44:37.111Z,6.80
2022-11-03T02:47:26.653Z,6.70
2022-11-03T02:50:14.054Z,6.70
2022-11-03T02:53:01.853Z,6.80
2022-11-03T02:55:58.421Z,6.90
2022-11-03T02:58:51.599Z,6.90
2022-11-03T03:01:47.789Z,6.80
2022-11-03T03:04:44.686Z,6.80
2022-11-03T03:07:35.482Z,6.70
2022-11-03T03:10:27.380Z,6.60
2022-11-03T03:13:17.816Z,6.70
2022-11-03T03:16:11.222Z,6.70
2022-11-03T03:19:07.803Z,6.60
2022-11-03T03:21:58.162Z,6.70
2022-11-03T03:24:48.752Z,6.70
2022-11-03T03:27:38.614Z,6.60
2022-11-03T03:30:26.361Z,6.40
2022-11-03T03:33:16.141Z,6.40
2022-11-03T03:36:06.559Z,6.40
2022-11-03T03:38:59.565Z,6.40
2022-11-03T03:41:49.234Z,6.40
2022-11-03T03:44:38.418Z,6.40
2022-11-03T03:47:31.985Z,6.40
2022-11-03T03:50:20.280Z,6.40
2022-11-03T03:53:10.620Z,6.40
2022-11-03T03:56:00.264Z,6.20
2022-11-03T03:58:47.502Z,6.30
2022-11-03T04:01:35.360Z,6.30
2022-11-03T04:04:22.841Z,6.30
2022-11-03T04:07:28.549Z,6.40
2022-11-03T04:10:21.654Z,6.40
2022-11-03T04:13:28.288Z,6.40
2022-11-03T04:16:33.713Z,6.50
2022-11-03T04:19:38.637Z,6.40
2022-11-03T04:22:28.944Z,6.40
2022-11-03T04:25:16.986Z,6.40
2022-11-03T04:28:13.241Z,6.50
2022-11-03T04:31:02.746Z,6.50
2022-11-03T04:33:50.537Z,6.50
2022-11-03T04:36:37.834Z,6.40
2022-11-03T04:39:25.541Z,6.40
2022-11-03T04:42:21.732Z,6.50
2022-11-03T04:45:15.105Z,6.50
2022-11-03T04:48:05.676Z,6.40
2022-11-03T04:50:58.529Z,6.50
2022-11-03T04:53:49.065Z,6.50
2022-11-03T04:56:36.182Z,6.40
2022-11-03T04:59:23.483Z,6.40
2022-11-03T05:02:16.171Z,6.30
2022-11-03T05:05:06.165Z,6.20
2022-11-03T05:07:56.268Z,6.20
2022-11-03T05:10:43.581Z,6.10
2022-11-03T05:13:30.750Z,6.20
2022-11-03T05:16:18.828Z,6.20
2022-11-03T05:19:08.327Z,6.20
2022-11-03T05:21:58.914Z,6.20
2022-11-03T05:24:46.506Z,6.10
2022-11-03T05:27:33.857Z,6.10
2022-11-03T05:30:21.136Z,6.10
2022-11-03T05:33:29.988Z,6.10
2022-11-03T05:36:23.013Z,6.00
2022-11-03T05:39:40.394Z,6.00
2022-11-03T05:42:34.130Z,6.10
2022-11-03T05:45:27.271Z,6.20
2022-11-03T05:48:41.429Z,6.20
2022-11-03T05:51:35.291Z,6.20
2022-11-03T05:54:25.652Z,6.20
2022-11-03T05:57:15.490Z,6.10
2022-11-03T06:00:05.358Z,6.10
2022-11-03T06:02:52.854Z,6.10
2022-11-03T06:05:39.833Z,6.00
2022-11-03T06:08:30.493Z,6.10
2022-11-03T06:11:23.405Z,6.00
2022-11-03T06:14:24.654Z,6.00
2022-11-03T06:17:29.380Z,5.90
2022-11-03T06:20:23.050Z,5.90
2022-11-03T06:23:13.547Z,5.80
2022-11-03T06:26:03.388Z,5.80
2022-11-03T06:28:50.769Z,5.90
2022-11-03T06:31:39.850Z,5.90
2022-11-03T06:34:45.876Z,5.90
2022-11-03T06:37:35.046Z,5.90
2022-11-03T06:40:25.382Z,6.00
2022-11-03T06:43:28.675Z,5.90
2022-11-03T06:46:18.941Z,5.90
2022-11-03T06:49:09.477Z,5.90
2022-11-03T06:51:59.078Z,5.90
2022-11-03T06:54:49.460Z,6.00
2022-11-03T06:57:40.176Z,6.20
2022-11-03T07:00:34.577Z,6.30
2022-11-03T07:03:27.924Z,6.40
2022-11-03T07:06:33.355Z,6.60
2022-11-03T07:09:25.965Z,6.80
2022-11-03T07:12:16.337Z,6.90
2022-11-03T07:17:53.370Z,7.10
2022-11-03T07:20:41.140Z,7.20
2022-11-03T07:23:31.138Z,7.30
2022-11-03T07:26:19.296Z,7.40
2022-11-03T07:29:08.597Z,7.60
2022-11-03T07:31:58.083Z,7.70
2022-11-03T07:34:46.185Z,7.90
2022-11-03T07:37:35.199Z,8.00
2022-11-03T07:40:25.505Z,8.20
2022-11-03T07:43:16.124Z,8.40
2022-11-03T07:46:05.542Z,8.50
2022-11-03T07:49:03.161Z,8.80
2022-11-03T07:51:50.906Z,8.90
2022-11-03T07:54:38.352Z,9.30
2022-11-03T07:57:30.435Z,9.70
2022-11-03T08:00:19.670Z,10.00
2022-11-03T08:03:09.157Z,10.20
2022-11-03T08:05:56.488Z,10.30
2022-11-03T08:08:43.890Z,10.50
2022-11-03T08:11:31.380Z,10.60
2022-11-03T08:14:19.349Z,10.60
2022-11-03T08:17:06.834Z,10.70
2022-11-03T08:19:54.429Z,11.00
2022-11-03T08:22:49.793Z,11.10
2022-11-03T08:25:30.755Z,11.40
2022-11-03T08:28:18.311Z,11.40
2022-11-03T08:31:11.185Z,11.30
2022-11-03T08:33:54.565Z,11.30
2022-11-03T08:36:41.808Z,11.10
2022-11-03T08:39:29.307Z,11.10
2022-11-03T08:42:16.981Z,11.20
2022-11-03T08:45:04.570Z,11.20
2022-11-03T08:47:52.108Z,11.30
2022-11-03T08:50:40.688Z,11.40
2022-11-03T08:53:28.539Z,11.60
2022-11-03T08:56:19.004Z,11.80
2022-11-03T08:59:04.945Z,11.80
2022-11-03T09:01:52.357Z,11.90
2022-11-03T09:04:39.869Z,12.10
2022-11-03T09:13:05.569Z,12.90
2022-11-03T09:15:52.985Z,13.10
2022-11-03T09:18:40.788Z,13.50
2022-11-03T09:21:28.122Z,13.60
2022-11-03T09:24:15.759Z,13.70
2022-11-03T09:27:04.752Z,13.90
2022-11-03T09:30:12.070Z,14.20
2022-11-03T09:32:41.671Z,14.40
2022-11-03T09:35:28.857Z,14.50
2022-11-03T09:38:16.252Z,14.80
2022-11-03T09:41:13.526Z,14.90
2022-11-03T09:43:56.660Z,15.20
2022-11-03T09:46:43.990Z,15.30
2022-11-03T09:49:33.916Z,15.40
2022-11-03T09:52:25.317Z,15.40
2022-11-03T09:55:18.512Z,15.60
2022-11-03T09:58:12.085Z,15.80
2022-11-03T10:00:59.021Z,15.80
2022-11-03T10:03:46.106Z,15.90
2022-11-03T10:06:33.591Z,15.90
2022-11-03T10:09:23.192Z,16.00
2022-11-03T10:12:11.402Z,15.80
2022-11-03T10:15:00.103Z,15.60
2022-11-03T10:17:50.336Z,15.70
2022-11-03T10:20:37.718Z,15.80
2022-11-03T10:23:25.050Z,15.80
2022-11-03T10:26:16.674Z,15.90
2022-11-03T10:29:11.614Z,16.10
2022-11-03T10:32:00.559Z,16.20
2022-11-03T10:34:48.138Z,16.30
2022-11-03T10:37:37.056Z,16.40
2022-11-03T10:40:47.467Z,16.40
2022-11-03T10:43:18.793Z,16.40
2022-11-03T10:46:44.685Z,16.50
2022-11-03T10:49:20.602Z,16.50
2022-11-03T10:52:23.296Z,16.30
2022-11-03T10:55:11.157Z,16.40
2022-11-03T10:57:59.618Z,16.40
2022-11-03T11:00:47.144Z,16.30
2022-11-03T11:03:37.275Z,16.20
2022-11-03T11:06:27.146Z,16.20
2022-11-03T11:09:25.384Z,16.20
2022-11-03T11:12:26.273Z,16.10
2022-11-03T11:15:45.911Z,16.10
2022-11-03T11:18:36.313Z,16.00
2022-11-03T11:21:27.483Z,16.00
2022-11-03T11:24:17.233Z,15.90
2022-11-03T11:27:06.420Z,16.00
2022-11-03T11:29:53.888Z,16.10
2022-11-03T11:32:44.505Z,16.20
2022-11-03T11:35:34.885Z,16.30
2022-11-03T11:38:47.847Z,16.30
2022-11-03T11:42:12.251Z,16.30
2022-11-03T11:45:02.983Z,16.10
2022-11-03T11:47:51.529Z,15.90
2022-11-03T11:50:39.004Z,15.70
2022-11-03T11:53:31.787Z,15.70
2022-11-03T11:56:17.831Z,15.70
2022-11-03T11:59:05.796Z,15.80
2022-11-03T12:01:56.989Z,15.80
2022-11-03T12:04:49.630Z,15.70
2022-11-03T12:07:38.044Z,15.50
2022-11-03T12:10:28.306Z,15.40
2022-11-03T12:13:46.602Z,15.30
2022-11-03T12:16:35.918Z,15.10
2022-11-03T12:19:37.844Z,15.20
2022-11-03T12:22:28.712Z,15.00
2022-11-03T12:25:37.238Z,15.00
2022-11-03T12:28:37.792Z,15.00
2022-11-03T12:31:25.031Z,15.10
2022-11-03T12:34:12.167Z,15.20
2022-11-03T12:37:00.040Z,15.40
2022-11-03T12:39:47.353Z,15.40
2022-11-03T12:42:35.044Z,15.40
2022-11-03T12:45:25.292Z,15.40
2022-11-03T12:48:12.626Z,15.40
2022-11-03T12:51:00.186Z,15.30
2022-11-03T12:53:47.408Z,15.30
2022-11-03T12:56:34.903Z,15.40
2022-11-03T12:59:23.719Z,15.40
2022-11-03T13:02:12.299Z,15.40
2022-11-03T13:05:00.668Z,15.30
2022-11-03T13:07:48.249Z,15.30
2022-11-03T13:10:35.810Z,15.30
2022-11-03T13:13:27.101Z,15.20
2022-11-03T13:16:14.541Z,15.00
2022-11-03T13:19:01.947Z,15.00
2022-11-03T13:21:49.062Z,15.00
2022-11-03T13:24:36.674Z,15.20
2022-11-03T13:27:24.324Z,15.10
2022-11-03T13:30:12.283Z,15.00
2022-11-03T13:32:59.481Z,15.00
2022-11-03T13:35:47.194Z,15.00
2022-11-03T13:38:34.740Z,15.00
2022-11-03T13:41:23.774Z,15.10
2022-11-03T13:44:11.120Z,15.20
2022-11-03T13:46:59.223Z,15.10
2022-11-03T13:50:13.092Z,15.10
2022-11-03T13:52:35.298Z,15.20
2022-11-03T14:01:02.584Z,15.10
2022-11-03T14:06:38.766Z,15.00
2022-11-03T14:09:26.487Z,14.90
2022-11-03T14:12:31.975Z,14.90
2022-11-03T14:15:19.583Z,14.80
2022-11-03T14:18:06.848Z,14.70
2022-11-03T14:20:54.386Z,14.70
2022-11-03T14:23:41.689Z,14.70
2022-11-03T14:26:41.619Z,14.70
2022-11-03T14:29:17.665Z,14.70
2022-11-03T14:32:05.407Z,14.80
2022-11-03T14:34:54.580Z,14.80
2022-11-03T14:37:41.855Z,14.80
2022-11-03T14:40:47.473Z,14.70
2022-11-03T14:43:35.226Z,14.60
2022-11-03T14:46:22.710Z,14.50
2022-11-03T14:49:09.749Z,14.50
2022-11-03T14:51:59.932Z,14.50
2022-11-03T14:54:48.271Z,14.60
2022-11-03T14:57:35.832Z,14.60
2022-11-03T15:00:24.707Z,14.60
2022-11-03T15:03:12.426Z,14.60
2022-11-03T15:06:00.037Z,14.60
2022-11-03T15:08:51.987Z,14.70
2022-11-03T15:11:37.639Z,14.80
2022-11-03T15:14:25.111Z,14.80
2022-11-03T15:17:12.616Z,14.90
2022-11-03T15:20:00.129Z,14.80
2022-11-03T15:25:38.407Z,14.80
2022-11-03T15:28:25.930Z,14.60
2022-11-03T15:31:13.276Z,14.40
2022-11-03T15:34:03.075Z,14.30
2022-11-03T15:36:49.203Z,14.30
2022-11-03T15:39:36.389Z,14.20
2022-11-03T15:42:23.540Z,14.20
2022-11-03T15:45:15.417Z,14.20
2022-11-03T15:48:02.995Z,14.10
2022-11-03T15:50:51.911Z,14.00
2022-11-03T15:53:39.382Z,14.00
2022-11-03T15:56:27.713Z,14.00
2022-11-03T15:59:15.202Z,14.10
2022-11-03T16:02:13.787Z,14.00
2022-11-03T16:04:54.538Z,14.10
2022-11-03T16:07:42.060Z,14.00
2022-11-03T16:10:29.527Z,14.00
2022-11-03T16:13:16.598Z,14.00
2022-11-03T16:16:04.272Z,14.00
2022-11-03T16:18:51.554Z,14.00
2022-11-03T16:21:38.835Z,13.90
2022-11-03T16:24:33.376Z,13.60
2022-11-03T16:27:15.686Z,13.50
2022-11-03T16:30:03.313Z,13.50
2022-11-03T16:32:52.264Z,13.50
2022-11-03T16:35:39.666Z,13.40
2022-11-03T16:38:27.227Z,13.20
2022-11-03T16:41:14.678Z,13.20
2022-11-03T16:44:02.231Z,13.20
2022-11-03T16:46:49.453Z,13.20
2022-11-03T16:49:38.413Z,13.10
2022-11-03T16:52:25.666Z,13.20
2022-11-03T16:55:13.245Z,13.20
2022-11-03T16:58:00.647Z,13.20
2022-11-03T17:00:47.931Z,13.20
2022-11-03T17:03:35.309Z,13.20
2022-11-03T17:06:25.503Z,13.20
2022-11-03T17:09:16.959Z,13.10
2022-11-03T17:12:04.494Z,13.10
2022-11-03T17:14:55.574Z,13.10
2022-11-03T17:17:41.339Z,13.10
2022-11-03T17:20:31.477Z,13.10
2022-11-03T17:23:19.185Z,13.10
2022-11-03T17:26:06.956Z,13.00
2022-11-03T17:28:56.862Z,13.00
2022-11-03T17:31:45.824Z,13.00
2022-11-03T17:34:33.600Z,12.90
2022-11-03T17:37:25.022Z,13.00
2022-11-03T17:40:17.912Z,13.10
2022-11-03T17:43:07.542Z,13.10
2022-11-03T17:45:55.256Z,13.10
2022-11-03T17:48:42.715Z,13.10
2022-11-03T17:51:30.091Z,13.20
2022-11-03T17:54:17.741Z,13.20
2022-11-03T17:57:05.091Z,13.30
2022-11-03T17:59:55.405Z,13.30
2022-11-03T18:02:43.273Z,13.20
2022-11-03T18:05:32.529Z,13.20
2022-11-03T18:08:20.630Z,13.10
2022-11-03T18:11:09.346Z,13.20
2022-11-03T18:13:56.556Z,13.20
2022-11-03T18:16:43.909Z,13.10
2022-11-03T18:19:31.883Z,13.00
2022-11-03T18:22:19.162Z,12.90
2022-11-03T18:25:18.793Z,12.80
2022-11-03T18:28:06.328Z,12.70
2022-11-03T18:30:56.481Z,12.70
2022-11-03T18:33:43.782Z,12.80
2022-11-03T18:36:34.162Z,12.80
2022-11-03T18:39:27.302Z,12.80
2022-11-03T18:42:16.401Z,12.80
2022-11-03T18:45:15.211Z,12.90
2022-11-03T18:48:02.201Z,12.90
2022-11-03T18:50:54.550Z,13.10
2022-11-03T18:53:42.097Z,13.20
2022-11-03T18:56:34.150Z,13.20
2022-11-03T18:59:31.741Z,13.20
2022-11-03T19:02:26.290Z,13.10
2022-11-03T19:05:16.111Z,13.10
2022-11-03T19:08:04.333Z,13.10
2022-11-03T19:10:52.422Z,13.10
2022-11-03T19:13:45.359Z,13.20
2022-11-03T19:16:33.895Z,13.20
2022-11-03T19:19:22.880Z,13.10
2022-11-03T19:22:15.829Z,13.10
2022-11-03T19:25:02.911Z,13.10
2022-11-03T19:27:51.997Z,13.20
2022-11-03T19:30:40.044Z,13.20
2022-11-03T19:33:30.628Z,13.20
2022-11-03T19:36:18.143Z,13.30
2022-11-03T19:39:05.803Z,13.30
2022-11-03T19:42:12.620Z,13.30
2022-11-03T19:45:02.808Z,13.30
2022-11-03T19:48:23.263Z,13.30
2022-11-03T19:50:51.214Z,13.30
2022-11-03T19:53:42.114Z,13.30
2022-11-03T19:56:27.850Z,13.20
2022-11-03T19:59:16.853Z,13.10
2022-11-03T20:02:05.082Z,13.10
2022-11-03T20:04:52.435Z,13.00
2022-11-03T20:07:41.613Z,13.00
2022-11-03T20:10:31.780Z,12.90
2022-11-03T20:13:24.473Z,13.10
2022-11-03T20:16:14.211Z,13.10
2022-11-03T20:19:01.676Z,13.20
2022-11-03T20:21:49.267Z,13.20
2022-11-03T20:24:37.006Z,13.20
2022-11-03T20:27:24.226Z,13.30
2022-11-03T20:30:19.267Z,13.30
2022-11-03T20:33:07.885Z,13.40
2022-11-03T20:35:56.812Z,13.40
2022-11-03T20:38:46.172Z,13.40
2022-11-03T20:41:35.335Z,13.30
2022-11-03T20:44:24.321Z,13.30
2022-11-03T20:47:13.941Z,13.30
2022-11-03T20:50:01.434Z,13.30
2022-11-03T20:52:49.858Z,13.30
2022-11-03T20:55:37.682Z,13.30
2022-11-03T20:58:25.146Z,13.40
2022-11-03T21:01:19.383Z,13.40
2022-11-03T21:04:08.308Z,13.40
2022-11-03T21:06:56.111Z,13.30
2022-11-03T21:09:43.719Z,13.10
2022-11-03T21:12:31.442Z,13.20
2022-11-03T21:16:03.833Z,13.20
2022-11-03T21:18:49.225Z,13.20
2022-11-03T21:21:36.702Z,13.20
2022-11-03T21:24:23.989Z,13.10
2022-11-03T21:27:15.652Z,13.20
2022-11-03T21:30:03.020Z,13.20
2022-11-03T21:32:51.212Z,13.20
2022-11-03T21:35:39.281Z,13.20
2022-11-03T21:38:26.853Z,13.20
2022-11-03T21:41:32.338Z,13.20
2022-11-03T21:44:22.093Z,13.20
2022-11-03T21:47:09.269Z,13.20
2022-11-03T21:49:56.833Z,13.20
2022-11-03T21:52:44.425Z,13.10
2022-11-03T21:55:32.563Z,13.00
2022-11-03T21:58:22.107Z,13.10
2022-11-03T22:01:10.191Z,13.20
2022-11-03T22:03:58.233Z,13.20
2022-11-03T22:06:45.765Z,13.20
2022-11-03T22:09:33.025Z,13.10
2022-11-03T22:12:21.521Z,13.00
2022-11-03T22:15:27.577Z,12.90
2022-11-03T22:18:16.237Z,12.90
2022-11-03T22:21:22.145Z,12.90
2022-11-03T22:24:27.946Z,12.80
2022-11-03T22:27:16.546Z,12.70
2022-11-03T22:30:22.385Z,12.70
2022-11-03T22:33:09.905Z,12.70
2022-11-03T22:36:21.449Z,12.80
2022-11-03T22:39:23.213Z,12.70
2022-11-03T22:42:31.369Z,12.70
2022-11-03T22:45:36.745Z,12.60
2022-11-03T22:48:27.545Z,12.60
2022-11-03T22:51:16.706Z,12.70
2022-11-03T22:54:10.256Z,12.70
2022-11-03T22:56:57.484Z,12.70
2022-11-03T22:59:44.783Z,12.70
2022-11-03T23:02:32.575Z,12.60
2022-11-03T23:05:21.832Z,12.60
2022-11-03T23:08:09.530Z,12.60
2022-11-03T23:10:56.910Z,12.50
2022-11-03T23:13:55.166Z,12.60
2022-11-03T23:16:44.194Z,12.60
2022-11-03T23:19:49.490Z,12.60
2022-11-03T23:22:37.038Z,12.60
2022-11-03T23:25:24.778Z,12.60
2022-11-03T23:28:12.066Z,12.50
2022-11-03T23:30:59.330Z,12.50
2022-11-03T23:33:46.742Z,12.50
2022-11-03T23:36:34.522Z,12.50
2022-11-03T23:39:22.689Z,12.60
2022-11-03T23:42:09.876Z,12.60
2022-11-03T23:45:14.604Z,12.60
2022-11-03T23:48:19.971Z,12.70
2022-11-03T23:51:07.624Z,12.70
2022-11-03T23:53:56.378Z,12.70
2022-11-03T23:57:05.156Z,12.70
2022-11-03T23:59:55.531Z,12.70
